Time;durP1;ratioP1;P1;durP2;ratioP2;P2;SDS_P1;SDS_P2;PMS_P1;PMS_P2;Temp;Humidity;BMP_temperature;BMP_pressure;BME280_temperature;BME280_humidity;BME280_pressure;Samples;Min_cycle;Max_cycle;Signal;HPM_P1;HPM_P2
2021/12/22 00:00:34;;;;;;;61.70;28.03;;;-4.20;99.90;;;;;;5051498;28;20278;-64
2021/12/22 00:03:06;;;;;;;71.60;31.10;;;-4.20;99.90;;;;;;5065463;28;20755;-64
2021/12/22 00:05:42;;;;;;;68.50;29.57;;;-4.10;99.90;;;;;;5072323;28;20200;-64
2021/12/22 00:08:12;;;;;;;64.17;28.10;;;-4.00;99.90;;;;;;5075666;28;20261;-64
2021/12/22 00:10:42;;;;;;;65.03;29.53;;;-3.90;99.90;;;;;;5068143;28;20275;-64
2021/12/22 00:13:11;;;;;;;62.67;28.97;;;-3.90;99.90;;;;;;5059391;28;20254;-64
2021/12/22 00:15:40;;;;;;;68.47;31.27;;;-3.90;99.90;;;;;;5065951;28;20738;-64
2021/12/22 00:18:09;;;;;;;59.40;28.47;;;-4.00;99.90;;;;;;5074026;28;20721;-64
2021/12/22 00:20:40;;;;;;;61.27;28.93;;;-4.00;99.90;;;;;;5052673;28;20204;-64
2021/12/22 00:23:08;;;;;;;62.37;27.80;;;-4.10;99.90;;;;;;5081498;28;20747;-64
2021/12/22 00:25:37;;;;;;;62.43;28.87;;;-4.20;99.90;;;;;;5072187;28;20773;-64
2021/12/22 00:28:08;;;;;;;63.50;27.97;;;-4.20;99.90;;;;;;5063757;28;20560;-64
2021/12/22 00:30:38;;;;;;;55.83;27.87;;;-4.30;99.90;;;;;;5078649;28;20230;-64
2021/12/22 00:33:10;;;;;;;56.90;27.97;;;-4.30;99.90;;;;;;5079480;28;20224;-64
2021/12/22 00:35:41;;;;;;;57.10;27.87;;;-4.40;99.90;;;;;;5063043;28;20253;-64
2021/12/22 00:38:11;;;;;;;55.07;26.50;;;-4.40;99.90;;;;;;5083705;28;20694;-65
2021/12/22 00:40:41;;;;;;;55.87;26.53;;;-4.40;99.90;;;;;;5076858;28;20198;-64
2021/12/22 00:43:11;;;;;;;57.80;26.87;;;-4.50;99.90;;;;;;5081376;28;20719;-64
2021/12/22 00:45:40;;;;;;;56.73;27.63;;;-4.50;99.90;;;;;;5075352;28;20716;-64
2021/12/22 00:48:11;;;;;;;60.33;28.30;;;-4.50;99.90;;;;;;5082855;28;20678;-64
2021/12/22 00:50:41;;;;;;;57.00;27.57;;;-4.50;99.90;;;;;;5075767;28;20712;-65
2021/12/22 00:53:09;;;;;;;56.03;26.90;;;-4.50;99.90;;;;;;5077780;28;20720;-64
2021/12/22 00:55:38;;;;;;;65.17;28.63;;;-4.50;99.90;;;;;;5080918;28;20564;-64
2021/12/22 00:58:07;;;;;;;60.47;27.70;;;-4.50;99.90;;;;;;5092258;28;20731;-64
2021/12/22 01:00:37;;;;;;;56.07;28.53;;;-4.50;99.90;;;;;;5073743;28;20286;-64
2021/12/22 01:03:12;;;;;;;60.37;28.30;;;-4.50;99.90;;;;;;5077793;28;20669;-65
2021/12/22 01:06:19;;;;;;;58.93;27.97;;;-4.50;99.90;;;;;;5073144;28;20318;-65
2021/12/22 01:08:47;;;;;;;57.23;28.57;;;-4.60;99.90;;;;;;5060593;28;20223;-64
2021/12/22 01:11:16;;;;;;;61.57;27.53;;;-4.60;99.90;;;;;;5055605;28;20212;-64
2021/12/22 01:13:44;;;;;;;63.67;29.90;;;-4.60;99.90;;;;;;5064974;28;20232;-64
2021/12/22 01:16:14;;;;;;;61.87;28.47;;;-4.60;99.90;;;;;;5079657;28;20192;-64
2021/12/22 01:18:43;;;;;;;65.00;28.97;;;-4.60;99.90;;;;;;5059219;28;20200;-65
2021/12/22 01:21:18;;;;;;;57.37;28.13;;;-4.70;99.90;;;;;;5073260;28;20199;-64
2021/12/22 01:24:01;;;;;;;68.43;28.87;;;-4.70;99.90;;;;;;5072186;28;20278;-64
2021/12/22 01:26:33;;;;;;;66.00;28.40;;;-4.70;99.90;;;;;;5077646;28;20227;-64
2021/12/22 01:29:02;;;;;;;62.83;28.63;;;-4.70;99.90;;;;;;5075094;28;20203;-64
2021/12/22 01:31:32;;;;;;;62.90;28.47;;;-4.70;99.90;;;;;;5074543;28;20314;-64
2021/12/22 01:34:00;;;;;;;63.80;28.17;;;-4.70;99.90;;;;;;5080659;28;20226;-64
2021/12/22 01:36:29;;;;;;;63.77;28.30;;;-4.70;99.90;;;;;;5070678;28;20203;-64
2021/12/22 01:38:58;;;;;;;63.23;29.40;;;-4.70;99.90;;;;;;5069673;28;20287;-64
2021/12/22 01:41:26;;;;;;;58.00;28.07;;;-4.70;99.90;;;;;;5060017;28;20783;-64
2021/12/22 01:43:55;;;;;;;72.27;28.27;;;-4.70;99.90;;;;;;5056443;28;20219;-64
2021/12/22 01:49:09;;;;;;;69.23;28.17;;;-4.70;99.90;;;;;;5071258;28;20948;-64
2021/12/22 01:49:43;;;;;;;60.70;26.40;;;-4.70;99.90;;;;;;5068408;28;20234;-64
2021/12/22 01:52:11;;;;;;;61.83;27.13;;;-4.70;99.90;;;;;;5067076;28;20251;-64
2021/12/22 01:54:46;;;;;;;62.97;29.60;;;-4.70;99.90;;;;;;5074170;28;20238;-64
2021/12/22 01:57:15;;;;;;;61.47;27.13;;;-4.70;99.90;;;;;;5078430;28;20627;-64
2021/12/22 01:59:45;;;;;;;61.70;27.37;;;-4.80;99.90;;;;;;5054168;28;20654;-64
2021/12/22 02:02:15;;;;;;;57.07;26.33;;;-4.80;99.90;;;;;;5051395;28;20237;-64
2021/12/22 02:04:45;;;;;;;64.80;27.83;;;-4.80;99.90;;;;;;5067863;28;20278;-65
2021/12/22 02:07:14;;;;;;;60.20;27.60;;;-4.90;99.90;;;;;;5060929;28;20602;-64
2021/12/22 02:10:02;;;;;;;60.40;28.57;;;-4.90;99.90;;;;;;5071395;28;20188;-64
2021/12/22 02:12:35;;;;;;;56.83;26.77;;;-4.90;99.90;;;;;;5073071;28;20223;-64
2021/12/22 02:15:04;;;;;;;64.80;27.63;;;-4.80;99.90;;;;;;5060145;28;20235;-64
2021/12/22 02:17:35;;;;;;;64.70;27.40;;;-4.80;99.90;;;;;;5059460;28;20238;-64
2021/12/22 02:20:06;;;;;;;59.80;27.10;;;-4.90;99.90;;;;;;5071956;28;20230;-64
2021/12/22 02:22:36;;;;;;;54.90;27.00;;;-4.90;99.90;;;;;;5080764;28;20266;-64
2021/12/22 02:25:12;;;;;;;61.97;26.90;;;-4.90;99.90;;;;;;5077233;28;20662;-64
2021/12/22 02:27:46;;;;;;;60.07;26.83;;;-5.00;99.90;;;;;;5071107;28;20240;-64
2021/12/22 02:30:22;;;;;;;60.97;28.00;;;-5.00;99.90;;;;;;5070256;28;20210;-64
2021/12/22 02:35:41;;;;;;;59.57;26.07;;;-5.00;99.90;;;;;;5061463;28;20237;-65
2021/12/22 02:38:16;;;;;;;61.57;28.63;;;-5.00;99.90;;;;;;5069985;28;20215;-64
2021/12/22 02:40:46;;;;;;;67.30;28.10;;;-5.00;99.90;;;;;;5068890;28;20195;-64
2021/12/22 02:43:20;;;;;;;65.37;27.50;;;-5.00;99.90;;;;;;5070949;28;20234;-64
2021/12/22 02:45:49;;;;;;;60.47;27.77;;;-5.10;99.90;;;;;;5069910;28;20196;-65
2021/12/22 02:48:18;;;;;;;64.30;28.20;;;-5.10;99.90;;;;;;5081424;28;20192;-64
2021/12/22 02:50:48;;;;;;;55.07;26.27;;;-5.10;99.90;;;;;;5084479;28;20290;-64
2021/12/22 02:53:16;;;;;;;54.67;26.57;;;-5.10;99.90;;;;;;5079286;28;20273;-63
2021/12/22 02:55:50;;;;;;;54.50;25.67;;;-5.10;99.90;;;;;;5073859;28;20207;-64
2021/12/22 02:58:30;;;;;;;58.93;27.30;;;-5.20;99.90;;;;;;5074268;28;20191;-64
2021/12/22 03:01:23;;;;;;;56.63;28.40;;;-5.20;99.90;;;;;;5077809;28;20623;-64
2021/12/22 03:03:58;;;;;;;58.10;25.63;;;-5.20;99.90;;;;;;5079437;28;20206;-64
2021/12/22 03:06:34;;;;;;;57.60;28.40;;;-5.20;99.90;;;;;;5077076;28;20184;-64
2021/12/22 03:09:15;;;;;;;67.83;28.70;;;-5.30;99.90;;;;;;5073021;28;20244;-64
2021/12/22 03:11:44;;;;;;;63.00;26.93;;;-5.30;99.90;;;;;;5079919;28;20200;-64
2021/12/22 03:14:13;;;;;;;57.20;26.50;;;-5.20;99.90;;;;;;5075783;28;20314;-64
2021/12/22 03:16:42;;;;;;;60.03;26.97;;;-5.20;99.90;;;;;;5076837;28;20395;-65
2021/12/22 03:19:11;;;;;;;60.23;27.27;;;-5.20;99.90;;;;;;5075638;28;20266;-65
2021/12/22 03:21:42;;;;;;;59.53;27.10;;;-5.30;99.90;;;;;;5093085;28;20183;-64
2021/12/22 03:24:12;;;;;;;62.87;28.60;;;-5.30;99.90;;;;;;5078504;28;20227;-64
2021/12/22 03:26:43;;;;;;;54.80;25.90;;;-5.30;99.90;;;;;;5069604;28;20271;-65
2021/12/22 03:29:14;;;;;;;51.97;25.67;;;-5.30;99.90;;;;;;5079661;28;20196;-64
2021/12/22 03:31:44;;;;;;;67.50;28.30;;;-5.30;99.90;;;;;;5069768;28;20604;-64
2021/12/22 03:34:13;;;;;;;56.87;26.80;;;-5.20;99.90;;;;;;5069619;28;20212;-64
2021/12/22 03:36:43;;;;;;;61.10;26.70;;;-5.20;99.90;;;;;;5072797;28;20873;-65
2021/12/22 03:39:14;;;;;;;61.30;26.73;;;-5.20;99.90;;;;;;5065191;28;20923;-64
2021/12/22 03:41:44;;;;;;;57.07;26.87;;;-5.20;99.90;;;;;;5067259;28;20284;-64
2021/12/22 03:44:13;;;;;;;66.20;26.20;;;-5.20;99.90;;;;;;5068838;28;20188;-64
2021/12/22 03:46:41;;;;;;;54.83;25.77;;;-5.30;99.90;;;;;;5074938;28;20557;-65
2021/12/22 03:49:12;;;;;;;51.83;24.67;;;-5.30;99.90;;;;;;5070713;28;20293;-64
2021/12/22 03:51:40;;;;;;;59.40;27.07;;;-5.30;99.90;;;;;;5074865;28;20227;-64
2021/12/22 03:54:12;;;;;;;56.80;27.00;;;-5.30;99.90;;;;;;5070679;28;20665;-64
2021/12/22 03:56:41;;;;;;;57.27;26.47;;;-5.30;99.90;;;;;;5078587;28;20215;-65
2021/12/22 03:59:09;;;;;;;62.27;27.63;;;-5.30;99.90;;;;;;5082900;28;20289;-64
2021/12/22 04:01:38;;;;;;;61.53;28.67;;;-5.30;99.90;;;;;;5080305;28;20247;-64
2021/12/22 04:04:12;;;;;;;60.20;27.17;;;-5.30;99.90;;;;;;5077832;28;20183;-64
2021/12/22 04:06:42;;;;;;;60.83;28.07;;;-5.30;99.90;;;;;;5069730;28;20204;-64
2021/12/22 04:09:13;;;;;;;64.47;28.83;;;-5.30;99.90;;;;;;5075033;28;20667;-65
2021/12/22 04:11:42;;;;;;;60.90;28.33;;;-5.20;99.90;;;;;;5077918;28;20216;-64
2021/12/22 04:14:10;;;;;;;54.50;26.43;;;-5.30;99.90;;;;;;5075094;28;20694;-64
2021/12/22 04:16:39;;;;;;;60.43;28.27;;;-5.20;99.90;;;;;;5075393;28;20226;-64
2021/12/22 04:19:08;;;;;;;68.07;27.40;;;-5.20;99.90;;;;;;5083712;28;20270;-64
2021/12/22 04:21:36;;;;;;;67.30;30.07;;;-5.20;99.90;;;;;;5080742;28;20230;-65
2021/12/22 04:24:06;;;;;;;67.40;29.30;;;-5.10;99.90;;;;;;5075422;28;20217;-64
2021/12/22 04:26:37;;;;;;;56.37;27.40;;;-5.10;99.90;;;;;;5074216;28;20195;-64
2021/12/22 04:29:06;;;;;;;61.20;29.80;;;-5.10;99.90;;;;;;5069698;28;20215;-64
2021/12/22 04:31:34;;;;;;;72.53;29.00;;;-5.10;99.90;;;;;;5077041;28;20230;-64
2021/12/22 04:34:07;;;;;;;59.03;27.80;;;-5.10;99.90;;;;;;5080276;28;20265;-64
2021/12/22 04:36:36;;;;;;;58.30;27.60;;;-5.10;99.90;;;;;;5074290;28;20488;-64
2021/12/22 04:39:06;;;;;;;63.20;30.33;;;-5.10;99.90;;;;;;5077668;28;20227;-65
2021/12/22 04:41:34;;;;;;;63.07;29.40;;;-5.20;99.90;;;;;;5077947;28;20792;-64
2021/12/22 04:44:05;;;;;;;61.43;28.10;;;-5.20;99.90;;;;;;5076845;28;20587;-64
2021/12/22 04:46:34;;;;;;;62.57;27.07;;;-5.20;99.90;;;;;;5078072;28;20188;-64
2021/12/22 04:49:07;;;;;;;68.63;29.10;;;-5.20;99.90;;;;;;5053308;28;20218;-64
2021/12/22 04:51:36;;;;;;;57.07;26.47;;;-5.20;99.90;;;;;;5079667;28;20282;-65
2021/12/22 04:54:15;;;;;;;62.67;28.73;;;-5.20;99.90;;;;;;5078143;28;20277;-64
2021/12/22 04:56:44;;;;;;;64.20;29.43;;;-5.10;99.90;;;;;;5076484;28;20760;-65
2021/12/22 04:59:14;;;;;;;60.57;27.73;;;-5.10;99.90;;;;;;5076665;28;20226;-64
2021/12/22 05:01:42;;;;;;;68.53;28.40;;;-5.00;99.90;;;;;;5074793;28;20191;-64
2021/12/22 05:04:11;;;;;;;69.37;28.37;;;-5.10;99.90;;;;;;5078673;28;20183;-64
2021/12/22 05:06:39;;;;;;;63.20;28.47;;;-5.10;99.90;;;;;;5074460;28;20544;-65
2021/12/22 05:09:08;;;;;;;69.93;28.47;;;-5.10;99.90;;;;;;5073894;28;20196;-64
2021/12/22 05:11:37;;;;;;;68.20;28.83;;;-5.00;99.90;;;;;;5071101;28;20827;-64
2021/12/22 05:14:07;;;;;;;70.27;28.20;;;-5.00;99.90;;;;;;5087275;28;20315;-64
2021/12/22 05:16:45;;;;;;;63.07;29.53;;;-5.00;99.90;;;;;;5073217;28;20196;-65
2021/12/22 05:19:14;;;;;;;60.83;28.50;;;-5.00;99.90;;;;;;5070806;28;20204;-64
2021/12/22 05:21:44;;;;;;;64.10;27.40;;;-5.00;99.90;;;;;;5073147;28;20191;-64
2021/12/22 05:24:12;;;;;;;56.10;26.47;;;-5.10;99.90;;;;;;5074475;28;21260;-64
2021/12/22 05:26:41;;;;;;;57.50;26.43;;;-5.10;99.90;;;;;;5070207;28;20223;-65
2021/12/22 05:29:10;;;;;;;57.33;26.93;;;-5.10;99.90;;;;;;5063082;28;20239;-66
2021/12/22 05:31:39;;;;;;;56.63;26.83;;;-5.20;99.90;;;;;;5076580;28;20207;-64
2021/12/22 05:34:08;;;;;;;58.27;27.27;;;-5.20;99.90;;;;;;5075664;28;20247;-64
2021/12/22 05:36:36;;;;;;;50.83;26.00;;;-5.10;99.90;;;;;;5059277;28;20194;-64
2021/12/22 05:39:05;;;;;;;57.67;25.83;;;-5.20;99.90;;;;;;5055848;28;20291;-64
2021/12/22 05:41:33;;;;;;;56.73;25.63;;;-5.20;99.90;;;;;;5073655;28;20596;-64
2021/12/22 05:44:02;;;;;;;55.13;26.03;;;-5.20;99.90;;;;;;5067232;28;20643;-64
2021/12/22 05:46:30;;;;;;;48.90;24.50;;;-5.20;99.90;;;;;;5071264;28;20278;-64
2021/12/22 05:49:00;;;;;;;54.57;24.57;;;-5.20;99.90;;;;;;5072424;28;20793;-65
2021/12/22 05:51:32;;;;;;;54.57;25.50;;;-5.30;99.90;;;;;;5072393;28;20215;-64
2021/12/22 05:54:01;;;;;;;57.77;25.43;;;-5.30;99.90;;;;;;5075522;28;20204;-64
2021/12/22 05:56:30;;;;;;;60.67;25.97;;;-5.30;99.90;;;;;;5074339;28;20191;-64
2021/12/22 05:59:00;;;;;;;52.13;24.67;;;-5.30;99.90;;;;;;5077849;28;20257;-65
2021/12/22 06:01:30;;;;;;;54.00;24.53;;;-5.30;99.90;;;;;;5073011;28;20258;-65
2021/12/22 06:04:38;;;;;;;52.90;24.00;;;-5.40;99.90;;;;;;5070023;28;20203;-64
2021/12/22 06:07:44;;;;;;;54.17;23.00;;;-5.40;99.90;;;;;;5072968;28;20202;-65
2021/12/22 06:10:13;;;;;;;51.57;24.23;;;-5.40;99.90;;;;;;5055340;28;20192;-64
2021/12/22 06:12:41;;;;;;;50.00;23.73;;;-5.50;99.90;;;;;;5072394;28;20207;-64
2021/12/22 06:15:10;;;;;;;49.50;23.60;;;-5.50;99.90;;;;;;5070020;28;20251;-64
2021/12/22 06:17:38;;;;;;;48.83;22.83;;;-5.50;99.90;;;;;;5088853;28;20319;-64
2021/12/22 06:20:09;;;;;;;49.83;23.87;;;-5.50;99.90;;;;;;5055657;28;20249;-64
2021/12/22 06:22:37;;;;;;;52.93;24.33;;;-5.40;99.90;;;;;;5078762;28;20195;-64
2021/12/22 06:25:06;;;;;;;54.37;25.20;;;-5.40;99.90;;;;;;5076268;28;20196;-65
2021/12/22 06:27:35;;;;;;;56.97;25.80;;;-5.40;99.90;;;;;;5053827;28;20192;-64
2021/12/22 06:30:04;;;;;;;58.40;25.70;;;-5.40;99.90;;;;;;5057235;28;20286;-64
2021/12/22 06:32:32;;;;;;;63.07;27.53;;;-5.50;99.90;;;;;;5052040;28;20200;-64
2021/12/22 06:35:00;;;;;;;54.47;27.27;;;-5.50;99.90;;;;;;5073012;28;20304;-64
2021/12/22 06:37:30;;;;;;;50.37;26.00;;;-5.50;99.90;;;;;;5054009;28;20223;-64
2021/12/22 06:39:59;;;;;;;53.20;26.20;;;-5.60;99.90;;;;;;5058043;28;20293;-64
2021/12/22 06:42:27;;;;;;;51.30;24.30;;;-5.50;99.90;;;;;;5075360;28;20196;-64
2021/12/22 06:44:55;;;;;;;50.30;23.40;;;-5.60;99.90;;;;;;5068033;28;20791;-64
2021/12/22 06:47:24;;;;;;;56.77;25.23;;;-5.60;99.90;;;;;;5073563;28;20198;-65
2021/12/22 06:49:53;;;;;;;47.93;24.83;;;-5.60;99.90;;;;;;5072867;28;20183;-64
2021/12/22 06:52:24;;;;;;;51.13;25.47;;;-5.50;99.90;;;;;;5073194;28;20196;-64
2021/12/22 06:54:54;;;;;;;57.13;24.93;;;-5.50;99.90;;;;;;5055958;28;20245;-65
2021/12/22 06:57:23;;;;;;;54.53;24.27;;;-5.50;99.90;;;;;;5074240;28;20231;-64
2021/12/22 06:59:51;;;;;;;54.07;24.03;;;-5.50;99.90;;;;;;5064729;28;20187;-64
2021/12/22 07:02:19;;;;;;;52.33;24.60;;;-5.50;99.90;;;;;;5059498;28;20254;-64
2021/12/22 07:04:48;;;;;;;58.27;24.73;;;-5.50;99.90;;;;;;5084215;28;20199;-65
2021/12/22 07:07:16;;;;;;;54.33;25.97;;;-5.50;99.90;;;;;;5077576;28;20250;-64
2021/12/22 07:09:45;;;;;;;51.17;25.10;;;-5.50;99.90;;;;;;5067816;28;20701;-64
2021/12/22 07:12:15;;;;;;;52.90;26.27;;;-5.60;99.90;;;;;;5069316;28;20398;-64
2021/12/22 07:14:43;;;;;;;59.70;26.43;;;-5.60;99.90;;;;;;5055282;28;20293;-64
2021/12/22 07:17:14;;;;;;;53.13;26.47;;;-5.60;99.90;;;;;;5074283;28;20191;-65
2021/12/22 07:19:43;;;;;;;65.63;27.33;;;-5.60;99.90;;;;;;5067610;28;20199;-64
2021/12/22 07:22:11;;;;;;;57.53;26.03;;;-5.60;99.90;;;;;;5068582;28;20234;-63
2021/12/22 07:24:40;;;;;;;53.83;24.03;;;-5.50;99.90;;;;;;5068760;28;20235;-63
2021/12/22 07:27:08;;;;;;;54.47;23.80;;;-5.40;99.90;;;;;;5062988;28;20215;-63
2021/12/22 07:29:38;;;;;;;51.40;24.30;;;-5.30;99.90;;;;;;5076974;28;20195;-63
2021/12/22 07:32:07;;;;;;;55.17;24.33;;;-5.30;99.90;;;;;;5077480;28;20230;-63
2021/12/22 07:34:43;;;;;;;59.27;25.37;;;-5.30;99.90;;;;;;5058720;28;20241;-63
2021/12/22 07:37:19;;;;;;;55.60;24.87;;;-5.40;99.90;;;;;;5058244;28;20259;-63
2021/12/22 07:39:47;;;;;;;57.57;24.73;;;-5.40;99.90;;;;;;5075166;28;20234;-63
2021/12/22 07:42:16;;;;;;;50.53;24.57;;;-5.40;99.90;;;;;;5074222;28;20222;-63
2021/12/22 07:44:46;;;;;;;51.03;23.97;;;-5.40;99.90;;;;;;5065700;28;20195;-63
2021/12/22 07:47:14;;;;;;;56.37;22.97;;;-5.40;99.90;;;;;;5078760;28;20250;-63
2021/12/22 07:49:43;;;;;;;48.30;23.27;;;-5.30;99.90;;;;;;5073698;28;20690;-63
2021/12/22 07:52:11;;;;;;;46.57;22.87;;;-5.30;99.90;;;;;;5068277;28;20307;-63
2021/12/22 07:54:40;;;;;;;51.30;23.87;;;-5.30;99.90;;;;;;5078171;28;20722;-63
2021/12/22 07:57:08;;;;;;;69.63;23.20;;;-5.30;99.90;;;;;;5082248;28;20207;-63
2021/12/22 07:59:36;;;;;;;54.00;24.37;;;-5.20;99.90;;;;;;5058068;28;20196;-63
2021/12/22 08:02:07;;;;;;;47.83;23.43;;;-5.20;99.90;;;;;;5073036;28;20862;-63
2021/12/22 08:04:38;;;;;;;44.70;22.27;;;-5.20;99.90;;;;;;5075190;28;20741;-63
2021/12/22 08:07:07;;;;;;;49.70;21.47;;;-5.10;99.90;;;;;;5076413;28;20278;-63
2021/12/22 08:09:35;;;;;;;59.60;24.17;;;-5.00;99.90;;;;;;5078012;28;20200;-63
2021/12/22 08:12:05;;;;;;;50.00;23.07;;;-4.80;99.90;;;;;;5075529;28;20254;-63
2021/12/22 08:14:34;;;;;;;50.03;22.93;;;-4.80;99.90;;;;;;5068911;28;20232;-63
2021/12/22 08:17:03;;;;;;;46.83;22.90;;;-4.80;99.90;;;;;;5060143;28;20208;-63
2021/12/22 08:19:33;;;;;;;48.17;22.10;;;-4.80;99.90;;;;;;5056124;28;20754;-63
2021/12/22 08:22:02;;;;;;;47.50;22.57;;;-4.70;99.90;;;;;;5056502;28;20196;-63
2021/12/22 08:24:33;;;;;;;46.47;23.10;;;-4.50;99.90;;;;;;5037992;28;20205;-63
2021/12/22 08:27:01;;;;;;;53.77;23.50;;;-4.30;99.90;;;;;;5059453;28;20275;-63
2021/12/22 08:29:30;;;;;;;51.07;24.60;;;-4.10;99.90;;;;;;5049956;28;20303;-63
2021/12/22 08:31:58;;;;;;;52.00;24.53;;;-4.10;99.90;;;;;;5049636;28;20610;-63
2021/12/22 08:34:34;;;;;;;48.80;22.83;;;-4.00;99.90;;;;;;5059815;28;20769;-63
2021/12/22 08:39:52;;;;;;;56.13;25.47;;;-3.80;99.90;;;;;;5058510;28;20254;-63
2021/12/22 08:42:21;;;;;;;56.57;24.23;;;-3.80;99.90;;;;;;5038427;28;20188;-63
2021/12/22 08:44:50;;;;;;;56.93;25.20;;;-3.80;99.90;;;;;;5055338;28;20204;-63
2021/12/22 08:47:19;;;;;;;55.70;27.93;;;-3.70;99.90;;;;;;5050692;28;20247;-63
2021/12/22 08:49:47;;;;;;;54.00;27.83;;;-3.60;99.90;;;;;;5056338;28;20259;-63
2021/12/22 08:52:17;;;;;;;57.37;26.37;;;-3.60;99.90;;;;;;5054750;28;20231;-63
2021/12/22 08:54:45;;;;;;;48.23;25.90;;;-3.60;99.90;;;;;;5051362;28;20683;-63
2021/12/22 08:57:14;;;;;;;50.13;24.23;;;-3.50;99.90;;;;;;5054723;28;20216;-63
2021/12/22 08:59:44;;;;;;;46.67;24.30;;;-3.40;99.90;;;;;;5051944;28;20192;-63
2021/12/22 09:02:13;;;;;;;66.67;28.57;;;-3.40;99.90;;;;;;5034996;28;20183;-63
2021/12/22 09:04:42;;;;;;;59.17;28.57;;;-3.40;99.90;;;;;;5035795;28;20220;-63
2021/12/22 09:07:10;;;;;;;60.30;28.07;;;-3.30;99.90;;;;;;5055269;28;20367;-63
2021/12/22 09:09:40;;;;;;;59.70;28.00;;;-3.30;99.90;;;;;;5060591;28;20652;-63
2021/12/22 09:12:09;;;;;;;51.50;26.33;;;-3.20;99.90;;;;;;5049037;28;20196;-63
2021/12/22 09:14:37;;;;;;;54.03;26.53;;;-3.00;99.90;;;;;;5066370;28;20274;-63
2021/12/22 09:17:06;;;;;;;59.97;26.27;;;-2.80;99.90;;;;;;5083767;28;20218;-62
2021/12/22 09:19:34;;;;;;;64.20;26.63;;;-2.70;99.90;;;;;;5059835;28;20239;-63
2021/12/22 09:22:03;;;;;;;48.20;26.70;;;-2.60;99.90;;;;;;5056354;28;20196;-63
2021/12/22 09:24:35;;;;;;;48.53;24.93;;;-2.50;99.90;;;;;;5073852;28;20210;-63
2021/12/22 09:27:05;;;;;;;49.63;24.30;;;-2.30;99.90;;;;;;5076840;28;20215;-63
2021/12/22 09:29:34;;;;;;;44.47;23.43;;;-2.10;99.90;;;;;;5073501;28;20250;-63
2021/12/22 09:32:02;;;;;;;56.37;22.93;;;-2.00;99.90;;;;;;5073229;28;20658;-63
2021/12/22 09:34:31;;;;;;;43.60;21.40;;;-1.80;99.90;;;;;;5071310;28;20357;-63
2021/12/22 09:36:59;;;;;;;42.70;20.13;;;-1.70;99.90;;;;;;5057567;28;20212;-63
2021/12/22 09:39:30;;;;;;;38.00;20.63;;;-1.60;99.90;;;;;;5077304;28;20672;-63
2021/12/22 09:41:58;;;;;;;42.70;20.93;;;-1.50;99.90;;;;;;5073373;28;20552;-63
2021/12/22 09:44:32;;;;;;;38.90;19.70;;;-1.30;99.90;;;;;;5077557;28;20207;-63
2021/12/22 09:47:00;;;;;;;38.07;19.50;;;-1.20;99.90;;;;;;5075413;28;20226;-63
2021/12/22 09:49:47;;;;;;;32.20;18.43;;;-1.20;99.90;;;;;;5076234;28;20196;-63
2021/12/22 09:52:21;;;;;;;38.13;19.23;;;-1.10;99.90;;;;;;5071943;28;20203;-63
2021/12/22 09:54:56;;;;;;;37.93;19.00;;;-0.90;99.90;;;;;;5074797;28;20200;-63
2021/12/22 09:57:28;;;;;;;31.57;17.03;;;-0.80;99.90;;;;;;5076679;28;20640;-63
2021/12/22 10:00:00;;;;;;;34.60;18.30;;;-0.70;99.90;;;;;;5075512;28;20219;-63
2021/12/22 10:02:30;;;;;;;33.40;17.90;;;-0.70;99.90;;;;;;5073250;28;20207;-63
2021/12/22 10:05:00;;;;;;;33.57;16.63;;;-0.50;99.90;;;;;;5066914;28;20188;-63
2021/12/22 10:07:30;;;;;;;37.17;20.23;;;-0.40;99.90;;;;;;5060343;28;20227;-63
2021/12/22 10:10:07;;;;;;;42.23;18.77;;;-0.20;99.90;;;;;;5074309;28;20283;-63
2021/12/22 10:12:36;;;;;;;30.83;15.07;;;-0.10;99.90;;;;;;5074097;28;20261;-63
2021/12/22 10:15:09;;;;;;;27.53;14.93;;;0.10;99.90;;;;;;5072706;28;20688;-63
2021/12/22 10:17:40;;;;;;;34.53;16.80;;;0.20;99.90;;;;;;5072259;28;20219;-63
2021/12/22 10:20:13;;;;;;;29.73;15.93;;;0.20;99.90;;;;;;5075825;28;20196;-64
2021/12/22 10:22:43;;;;;;;27.23;16.40;;;0.30;99.90;;;;;;5077062;28;20288;-63
2021/12/22 10:25:17;;;;;;;26.73;15.67;;;0.30;99.90;;;;;;5073547;28;20274;-63
2021/12/22 10:27:56;;;;;;;34.33;15.73;;;0.30;99.90;;;;;;5074632;28;20257;-63
2021/12/22 10:30:30;;;;;;;28.93;16.97;;;0.40;99.90;;;;;;5091144;27;20669;-63
2021/12/22 10:33:12;;;;;;;27.03;16.53;;;0.40;99.90;;;;;;5074724;28;20239;-63
2021/12/22 10:35:42;;;;;;;25.17;14.70;;;0.40;99.90;;;;;;5075057;28;20273;-63
2021/12/22 10:38:13;;;;;;;29.23;16.13;;;0.40;99.90;;;;;;5076276;28;20558;-63
2021/12/22 10:40:43;;;;;;;26.00;14.73;;;0.40;99.90;;;;;;5071949;28;20678;-63
2021/12/22 10:43:18;;;;;;;28.23;15.37;;;0.40;99.90;;;;;;5068700;28;20238;-63
2021/12/22 10:45:50;;;;;;;34.60;17.07;;;0.40;99.90;;;;;;5062852;28;20212;-63
2021/12/22 10:51:14;;;;;;;31.70;17.57;;;0.50;99.90;;;;;;5072275;28;20269;-63
2021/12/22 10:53:45;;;;;;;32.30;17.63;;;0.70;99.90;;;;;;5072077;28;20210;-63
2021/12/22 10:56:24;;;;;;;24.70;14.63;;;0.80;99.90;;;;;;5072881;28;20670;-63
2021/12/22 10:59:07;;;;;;;30.17;15.33;;;0.90;99.90;;;;;;5062398;28;20196;-63
2021/12/22 11:01:40;;;;;;;36.50;15.73;;;0.90;99.90;;;;;;5072491;28;20204;-64
2021/12/22 11:04:21;;;;;;;29.60;15.77;;;1.00;99.90;;;;;;5077501;28;20658;-63
2021/12/22 11:06:53;;;;;;;24.37;15.50;;;1.10;99.90;;;;;;5072859;28;20191;-63
2021/12/22 11:09:23;;;;;;;26.50;14.63;;;1.20;99.90;;;;;;5071851;28;20203;-63
2021/12/22 11:11:56;;;;;;;25.07;13.87;;;1.30;99.90;;;;;;5074414;28;20278;-63
2021/12/22 11:14:26;;;;;;;29.50;15.17;;;1.30;99.90;;;;;;5078196;28;20585;-63
2021/12/22 11:17:05;;;;;;;25.10;14.57;;;1.30;99.90;;;;;;5073143;28;20227;-63
2021/12/22 11:19:36;;;;;;;22.87;13.03;;;1.50;99.90;;;;;;5080170;28;20257;-63
2021/12/22 11:22:13;;;;;;;24.17;13.67;;;1.60;99.90;;;;;;5076653;28;20234;-63
2021/12/22 11:24:45;;;;;;;23.10;13.10;;;1.90;99.90;;;;;;5061647;28;20223;-63
2021/12/22 11:27:16;;;;;;;20.50;11.97;;;2.00;99.90;;;;;;5038200;28;20211;-63
2021/12/22 11:29:47;;;;;;;23.80;12.73;;;2.00;99.90;;;;;;5049076;28;20196;-63
2021/12/22 11:32:17;;;;;;;22.13;12.87;;;2.00;99.90;;;;;;5059379;28;20758;-63
2021/12/22 11:34:51;;;;;;;23.60;13.13;;;2.10;99.90;;;;;;5072366;28;20206;-63
2021/12/22 11:37:21;;;;;;;27.17;13.33;;;2.20;99.90;;;;;;5073550;28;20210;-63
2021/12/22 11:39:50;;;;;;;21.30;11.47;;;2.40;99.90;;;;;;5068159;28;20278;-63
2021/12/22 11:42:21;;;;;;;17.70;11.37;;;2.60;99.90;;;;;;5074788;28;20206;-63
2021/12/22 11:44:54;;;;;;;19.33;12.07;;;2.50;99.90;;;;;;5076296;28;20682;-63
2021/12/22 11:47:24;;;;;;;16.50;10.83;;;2.60;99.90;;;;;;5075057;28;20249;-63
2021/12/22 11:49:54;;;;;;;18.27;11.53;;;2.60;99.90;;;;;;5070682;28;20214;-63
2021/12/22 11:52:37;;;;;;;19.97;11.37;;;2.70;99.90;;;;;;5074163;28;20191;-63
2021/12/22 11:55:08;;;;;;;18.40;11.17;;;2.70;99.90;;;;;;5072219;28;20203;-63
2021/12/22 11:57:37;;;;;;;19.77;11.33;;;2.80;99.90;;;;;;5071512;28;20258;-63
2021/12/22 12:00:27;;;;;;;17.63;11.03;;;2.80;99.90;;;;;;5076663;28;20258;-63
2021/12/22 12:03:24;;;;;;;19.23;11.13;;;2.60;99.90;;;;;;5074680;28;20227;-63
2021/12/22 12:06:06;;;;;;;16.83;11.10;;;2.40;99.90;;;;;;5074387;28;20183;-63
2021/12/22 12:08:40;;;;;;;21.17;11.53;;;2.40;99.90;;;;;;5076723;28;20183;-63
2021/12/22 12:11:09;;;;;;;17.17;11.23;;;2.50;99.90;;;;;;5093845;28;20275;-63
2021/12/22 12:13:47;;;;;;;17.53;11.10;;;2.40;99.90;;;;;;5080830;28;20195;-63
2021/12/22 12:22:31;;;;;;;18.00;11.27;;;2.50;99.90;;;;;;5079907;28;20285;-64
2021/12/22 12:25:08;;;;;;;19.23;10.90;;;2.50;99.90;;;;;;5077699;28;20214;-63
2021/12/22 12:27:51;;;;;;;18.53;10.53;;;2.60;99.90;;;;;;5077900;28;20298;-63
2021/12/22 12:30:23;;;;;;;20.77;10.90;;;2.50;99.90;;;;;;5079388;28;20214;-63
2021/12/22 12:33:07;;;;;;;17.23;10.47;;;2.50;99.90;;;;;;5059625;28;20226;-63
2021/12/22 12:35:54;;;;;;;21.33;11.77;;;2.50;99.90;;;;;;5076858;28;21038;-63
2021/12/22 12:38:27;;;;;;;19.10;11.70;;;2.60;99.90;;;;;;5069053;28;20230;-63
2021/12/22 12:41:28;;;;;;;20.73;11.60;;;2.80;99.90;;;;;;5076985;28;20262;-63
2021/12/22 12:44:08;;;;;;;18.13;10.60;;;2.90;99.90;;;;;;5072602;28;20228;-63
2021/12/22 12:46:48;;;;;;;18.87;10.70;;;2.90;99.90;;;;;;5073891;28;20257;-63
2021/12/22 12:49:39;;;;;;;16.97;10.60;;;3.10;99.90;;;;;;5056723;28;20192;-63
2021/12/22 12:52:28;;;;;;;15.93;10.10;;;3.00;99.90;;;;;;5060780;28;20809;-63
2021/12/22 12:55:15;;;;;;;19.77;10.23;;;2.90;99.90;;;;;;5077204;28;20195;-63
2021/12/22 12:57:44;;;;;;;16.33;10.40;;;2.80;99.90;;;;;;5076847;28;20219;-63
2021/12/22 13:00:24;;;;;;;18.80;10.13;;;2.80;99.90;;;;;;5077444;28;20261;-63
2021/12/22 13:03:06;;;;;;;17.80;10.23;;;2.80;99.90;;;;;;5074930;28;20279;-63
2021/12/22 13:05:36;;;;;;;16.73;10.40;;;2.80;99.90;;;;;;5072659;28;20199;-63